Michelle Sloan — WDH8832 — position and weather

sailwx.info

Track history (hours):
 
Tides and Currents Weather Stations Pressure Air Temp Water Temp Dewpoint Dewpoint Depression Visibility Wind Speed Wind Dir Waves Ship Positions

Michelle Sloan

Owner: Harley Marine Services, Inc., Seattle, WA. More information available from US FCC via Universal Licensing System and Coast Guard Vessel Documentation Center.

Last reported at 2018-Apr-25 22:11 UTC. Time now 2018-Apr-25 23:31 UTC.
Position N 47°17' W 122°25'.

Length 24 m; draft 4.9 m.

Type: Towing. MMSI: 367661930.

Date/timePositionNaut miles runAvg speedWind from/ knotsBaromVisibWave heightAir tempDewpointWater temp
2018-Apr-25 22:11N 47°17' W 122°25'1 7.6
2018-Apr-25 22:01N 47°16' W 122°24'1 1.0
2018-Apr-25 21:30N 47°16' W 122°23'2 3.0
2018-Apr-25 21:00N 47°17' W 122°25'2 4.1
2018-Apr-25 20:31N 47°18' W 122°27'2 0.2
2018-Apr-25 14:22N 47°18' W 122°25'2 5.3
2018-Apr-25 13:58N 47°16' W 122°23'1 1.0
2018-Apr-25 13:24N 47°16' W 122°24'1 3.7
2018-Apr-25 13:01N 47°17' W 122°26'1 1.6
2018-Apr-25 12:30N 47°18' W 122°27'1 0.1
2018-Apr-25 02:37N 47°18' W 122°25'0 0.8
2018-Apr-25 02:29N 47°18' W 122°25'0 0.7
2018-Apr-25 01:59N 47°17' W 122°26'510.6
2018-Apr-25 01:30N 47°20' W 122°32'5 9.9
2018-Apr-25 01:00N 47°25' W 122°32'510.4
2018-Apr-25 00:31N 47°30' W 122°30'510.7
2018-Apr-25 00:00N 47°35' W 122°26'3 6.7
2018-Apr-24 23:30N 47°35' W 122°21'0 0.8
2018-Apr-24 23:00N 47°35' W 122°21'1 1.3
2018-Apr-24 22:30N 47°34' W 122°21'0 0.1
2018-Apr-24 22:00N 47°34' W 122°21'0 0.0
2018-Apr-24 21:30N 47°34' W 122°21'0 0.0
2018-Apr-24 21:01N 47°34' W 122°21'1 2.1
2018-Apr-24 20:30N 47°35' W 122°21'1 1.6
2018-Apr-24 20:00N 47°35' W 122°21'0 0.4
2018-Apr-24 19:29N 47°34' W 122°21'0 0.0
2018-Apr-24 19:00N 47°34' W 122°21'0 0.0
2018-Apr-24 18:30N 47°34' W 122°21'0 0.0
2018-Apr-24 18:00N 47°34' W 122°21'0 0.2
2018-Apr-24 17:30N 47°34' W 122°21'0 0.2
2018-Apr-24 17:00N 47°34' W 122°21'1 2.2
2018-Apr-24 16:30N 47°36' W 122°21'3 6.3
2018-Apr-24 16:00N 47°37' W 122°24'3 5.2
2018-Apr-24 15:31N 47°40' W 122°24'1 1.0
2018-Apr-24 15:00N 47°40' W 122°24'0 0.3
2018-Apr-24 14:28N 47°40' W 122°23'0 0.0
2018-Apr-24 13:58N 47°40' W 122°23'0 0.0
2018-Apr-24 13:28N 47°40' W 122°23'0 0.0
2018-Apr-24 12:58N 47°40' W 122°23'0 0.0
2018-Apr-24 12:28N 47°40' W 122°23'0 0.0
2018-Apr-24 11:58N 47°40' W 122°23'0 0.0
2018-Apr-24 11:28N 47°40' W 122°23'0 0.0
2018-Apr-24 10:58N 47°40' W 122°23'0 0.0
2018-Apr-24 10:28N 47°40' W 122°23'0 0.0
2018-Apr-24 09:58N 47°40' W 122°23'0 0.0
2018-Apr-24 09:28N 47°40' W 122°23'0 0.0
2018-Apr-24 08:58N 47°40' W 122°23'0 0.0
2018-Apr-24 08:28N 47°40' W 122°23'0 0.0
2018-Apr-24 07:58N 47°40' W 122°23'0 0.0
2018-Apr-24 07:28N 47°40' W 122°23'0 0.0
2018-Apr-24 06:58N 47°40' W 122°23'0 0.0
2018-Apr-24 06:28N 47°40' W 122°23'0 0.0
2018-Apr-24 05:58N 47°40' W 122°23'0 0.0
2018-Apr-24 05:28N 47°40' W 122°23'0 0.0
2018-Apr-24 04:58N 47°40' W 122°23'0 0.0
2018-Apr-24 04:28N 47°40' W 122°23'0 0.0
2018-Apr-24 03:58N 47°40' W 122°23'0 0.0
2018-Apr-24 03:28N 47°40' W 122°23'0 0.0
2018-Apr-24 03:00N 47°40' W 122°23'0 0.0
2018-Apr-24 02:30N 47°40' W 122°23'0 0.0
2018-Apr-24 02:00N 47°40' W 122°23'0 0.0
2018-Apr-24 01:30N 47°40' W 122°23'0 0.1
2018-Apr-24 01:00N 47°40' W 122°23'0 0.1
2018-Apr-24 00:30N 47°40' W 122°23'0 0.0
2018-Apr-24 00:00N 47°40' W 122°23'0 0.0
2018-Apr-23 23:30N 47°40' W 122°23'0 0.2
2018-Apr-23 23:00N 47°40' W 122°23'0 0.2
2018-Apr-23 22:30N 47°40' W 122°23'1 1.6
2018-Apr-23 22:00N 47°40' W 122°22'2 3.1
2018-Apr-23 21:30N 47°39' W 122°20'0 0.2
2018-Apr-23 21:00N 47°39' W 122°21'3 5.1
2018-Apr-23 20:30N 47°40' W 122°24'0 0.6
2018-Apr-23 20:00N 47°40' W 122°24'2 4.1
2018-Apr-23 19:30N 47°38' W 122°25'5 9.6
2018-Apr-23 19:00N 47°35' W 122°21'3 5.4
2018-Apr-23 18:30N 47°36' W 122°24'5 9.7
2018-Apr-23 18:00N 47°32' W 122°28'5 9.6
2018-Apr-23 17:30N 47°27' W 122°31'5 9.9
2018-Apr-23 17:00N 47°22' W 122°32'5 9.2
2018-Apr-23 16:30N 47°18' W 122°28'2 1.9
2018-Apr-23 15:15N 47°18' W 122°25'0 0.0
2018-Apr-22 22:10N 47°17' W 122°25'1 7.4
2018-Apr-22 22:00N 47°16' W 122°24'1 1.6
2018-Apr-22 21:30N 47°16' W 122°23'2 3.0
2018-Apr-22 21:00N 47°17' W 122°25'2 3.5
2018-Apr-22 20:30N 47°18' W 122°27'1 1.6
2018-Apr-22 20:00N 47°17' W 122°26'1 2.2
2018-Apr-22 19:30N 47°17' W 122°25'1 0.7
2018-Apr-22 18:15N 47°17' W 122°23'2 0.5
2018-Apr-22 15:24N 47°18' W 122°25'2 6.0
2018-Apr-22 15:00N 47°19' W 122°28'611.1
2018-Apr-22 14:30N 47°23' W 122°22'510.4
2018-Apr-22 14:00N 47°28' W 122°25'510.4
2018-Apr-22 13:30N 47°33' W 122°27'5 9.3
2018-Apr-22 13:00N 47°36' W 122°22'2 3.4
2018-Apr-22 12:27N 47°34' W 122°21'0 0.0
2018-Apr-22 12:00N 47°34' W 122°21'0 0.0
2018-Apr-22 11:21N 47°34' W 122°21'0 0.0
2018-Apr-22 10:57N 47°34' W 122°21'0 0.0
2018-Apr-22 10:21N 47°34' W 122°21'0 0.0
2018-Apr-22 10:00N 47°34' W 122°21'0 0.0
2018-Apr-22 09:27N 47°34' W 122°21'0 0.0
2018-Apr-22 08:15N 47°34' W 122°21'0 0.0
2018-Apr-22 07:57N 47°34' W 122°21'0 0.0
2018-Apr-22 07:09N 47°34' W 122°21'0 0.0
2018-Apr-22 06:51N 47°34' W 122°21'0 0.0
2018-Apr-22 06:21N 47°34' W 122°21'0 0.0
2018-Apr-22 05:57N 47°34' W 122°21'0 0.0
2018-Apr-22 05:21N 47°34' W 122°21'0 0.0
2018-Apr-22 05:00N 47°34' W 122°21'0 0.0
2018-Apr-22 04:30N 47°34' W 122°21'0 0.0
2018-Apr-22 04:00N 47°34' W 122°21'0 0.0
2018-Apr-22 03:30N 47°34' W 122°21'0 0.0
2018-Apr-22 03:00N 47°34' W 122°21'0 0.0
2018-Apr-22 02:30N 47°34' W 122°21'0 0.0
2018-Apr-22 01:57N 47°34' W 122°21'0 0.0
2018-Apr-22 01:30N 47°34' W 122°21'0 0.0
2018-Apr-22 01:00N 47°34' W 122°21'0 0.0
2018-Apr-22 00:30N 47°34' W 122°21'0 0.0
2018-Apr-21 23:57N 47°34' W 122°21'0 0.0
2018-Apr-21 23:30N 47°34' W 122°21'0 0.0
2018-Apr-21 23:00N 47°34' W 122°21'0 0.0
2018-Apr-21 22:30N 47°34' W 122°21'0 0.0
2018-Apr-21 22:00N 47°34' W 122°21'0 0.0
2018-Apr-21 21:30N 47°34' W 122°21'0 0.0
2018-Apr-21 20:57N 47°34' W 122°21'0 0.0
2018-Apr-21 20:30N 47°34' W 122°21'0 0.0
2018-Apr-21 20:00N 47°34' W 122°21'0 0.0
2018-Apr-21 19:30N 47°34' W 122°21'0 0.0
2018-Apr-21 18:57N 47°34' W 122°21'0 0.0
2018-Apr-21 18:27N 47°34' W 122°21'0 0.0
2018-Apr-21 17:57N 47°34' W 122°21'0 0.0
2018-Apr-21 17:30N 47°34' W 122°21'0 0.0
2018-Apr-21 17:00N 47°34' W 122°21'0 0.0
2018-Apr-21 16:27N 47°34' W 122°21'0 0.0
2018-Apr-21 15:54N 47°34' W 122°21'0 0.0
2018-Apr-21 15:30N 47°34' W 122°21'0 0.0
2018-Apr-21 15:00N 47°34' W 122°21'0 0.0
2018-Apr-21 14:30N 47°34' W 122°21'0 0.0
2018-Apr-21 13:57N 47°34' W 122°21'0 0.0
2018-Apr-21 13:30N 47°34' W 122°21'0 0.0
2018-Apr-21 13:00N 47°34' W 122°21'0 0.0
2018-Apr-21 12:30N 47°34' W 122°21'0 0.0
2018-Apr-21 12:00N 47°34' W 122°21'1 2.1
2018-Apr-21 11:30N 47°35' W 122°21'0 0.8
2018-Apr-21 11:00N 47°35' W 122°21'0 0.1
2018-Apr-21 10:29N 47°35' W 122°21'1 1.3
2018-Apr-21 10:00N 47°34' W 122°21'0 0.0
2018-Apr-21 09:30N 47°34' W 122°21'0 0.0
2018-Apr-21 09:00N 47°34' W 122°21'0 0.0
2018-Apr-21 08:30N 47°34' W 122°21'0 0.0
2018-Apr-21 08:00N 47°34' W 122°21'0 0.0
2018-Apr-21 07:30N 47°34' W 122°21'0 0.0
2018-Apr-21 07:00N 47°34' W 122°21'0 0.0
2018-Apr-21 06:30N 47°34' W 122°21'0 0.0
2018-Apr-21 06:00N 47°34' W 122°21'0 0.0
2018-Apr-21 05:30N 47°34' W 122°21'1 2.2
2018-Apr-21 05:01N 47°35' W 122°21'510.0
2018-Apr-21 04:30N 47°39' W 122°27'5 9.6
2018-Apr-21 04:00N 47°43' W 122°28'510.6
2018-Apr-21 03:30N 47°49' W 122°28'611.5
2018-Apr-21 03:00N 47°54' W 122°30'7210.3
2018-Apr-20 20:00N 48°18' W 124°12'4 8.5
2018-Apr-20 19:30N 48°19' W 124°17'4 8.1
2018-Apr-20 19:00N 48°21' W 124°23'4 8.4
2018-Apr-20 18:30N 48°23' W 124°28'4 8.5
2018-Apr-20 18:00N 48°25' W 124°34'4 8.1
2018-Apr-20 17:30N 48°26' W 124°40'4 8.0
2018-Apr-20 17:00N 48°27' W 124°46'73 9.9
2018-Apr-20 09:40N 47°14' W 124°36'510.4
2018-Apr-20 09:10N 47°09' W 124°35'210.1
2018-Apr-20 08:59N 47°07' W 124°34'710.2
2018-Apr-20 08:16N 47°00' W 124°32'310.5
2018-Apr-20 08:00N 46°57' W 124°32'610.7
2018-Apr-20 07:28N 46°52' W 124°30'510.7
2018-Apr-20 07:00N 46°47' W 124°28'510.5
2018-Apr-20 06:30N 46°42' W 124°26'510.4
2018-Apr-20 06:00N 46°37' W 124°24'510.6
2018-Apr-20 05:30N 46°32' W 124°23'510.8
2018-Apr-20 05:00N 46°27' W 124°21'510.3
2018-Apr-20 04:30N 46°22' W 124°19'5 9.9
2018-Apr-20 04:00N 46°17' W 124°17'510.1
2018-Apr-20 03:30N 46°12' W 124°14'5 9.9
2018-Apr-20 03:00N 46°08' W 124°10'5 9.7
2018-Apr-20 02:30N 46°03' W 124°09'510.1
2018-Apr-20 02:00N 45°58' W 124°09'510.0
2018-Apr-20 01:31N 45°53' W 124°08'5 9.9
2018-Apr-20 01:00N 45°48' W 124°06'5 9.8
2018-Apr-20 00:30N 45°44' W 124°05'5 9.9
2018-Apr-20 00:00N 45°39' W 124°05'5 9.6
2018-Apr-19 23:30N 45°34' W 124°04'510.0
2018-Apr-19 23:00N 45°29' W 124°04'610.1
2018-Apr-19 22:23N 45°23' W 124°04'6 9.9
2018-Apr-19 21:44N 45°16' W 124°05'5 9.9
2018-Apr-19 21:16N 45°12' W 124°05'3 9.8
2018-Apr-19 20:58N 45°09' W 124°05'386 8.7
2018-Apr-18 00:26N 38°44' W 123°40'4 9.0
2018-Apr-18 00:00N 38°40' W 123°37'4 8.7
2018-Apr-17 23:30N 38°37' W 123°34'5 8.6
2018-Apr-17 22:54N 38°32' W 123°31'4 8.5
2018-Apr-17 22:28N 38°29' W 123°28'4 8.4
2018-Apr-17 22:00N 38°26' W 123°26'4 8.7
2018-Apr-17 21:30N 38°22' W 123°23'4 8.6
2018-Apr-17 21:00N 38°19' W 123°20'4 8.5
2018-Apr-17 20:30N 38°15' W 123°17'4 8.7
2018-Apr-17 20:00N 38°11' W 123°14'5 9.0
2018-Apr-17 19:30N 38°07' W 123°11'5 9.1
2018-Apr-17 19:00N 38°04' W 123°08'5 9.1
2018-Apr-17 18:30N 37°60' W 123°04'5 9.2
2018-Apr-17 18:00N 37°57' W 123°00'5 9.3
2018-Apr-17 17:30N 37°54' W 122°56'5 9.5
2018-Apr-17 17:00N 37°51' W 122°51'5 9.3
2018-Apr-17 16:30N 37°49' W 122°46'510.1
2018-Apr-17 16:00N 37°46' W 122°40'510.0
2018-Apr-17 15:30N 37°48' W 122°34'510.9
2018-Apr-17 15:00N 37°49' W 122°27'510.0
2018-Apr-17 14:30N 37°48' W 122°21'1 1.0
2018-Apr-17 14:00N 37°48' W 122°21'2 3.5
2018-Apr-17 13:31N 37°48' W 122°19'1 1.7
2018-Apr-17 13:00N 37°48' W 122°17'1 2.1
2018-Apr-17 12:30N 37°48' W 122°19'0 0.6
2018-Apr-17 12:00N 37°48' W 122°18'1 2.1
2018-Apr-17 11:30N 37°48' W 122°17'0 0.0
2018-Apr-17 11:00N 37°48' W 122°17'0 0.0
2018-Apr-17 10:30N 37°48' W 122°17'0 0.0
2018-Apr-17 10:00N 37°48' W 122°17'0 0.0
2018-Apr-17 09:30N 37°48' W 122°17'0 0.0
2018-Apr-17 09:00N 37°48' W 122°17'0 0.0
2018-Apr-17 08:30N 37°48' W 122°17'0 0.0
2018-Apr-17 08:00N 37°48' W 122°17'0 0.0
2018-Apr-17 07:30N 37°48' W 122°17'0 0.0
2018-Apr-17 07:00N 37°48' W 122°17'0 0.0
2018-Apr-17 06:30N 37°48' W 122°17'0 0.0
2018-Apr-17 06:00N 37°48' W 122°17'0 0.0
2018-Apr-17 05:30N 37°48' W 122°17'0 0.0
2018-Apr-17 04:59N 37°48' W 122°17'0 0.0
2018-Apr-17 04:30N 37°48' W 122°17'0 0.0
2018-Apr-17 04:00N 37°48' W 122°17'0 0.0
2018-Apr-17 03:30N 37°48' W 122°17'0 0.0
2018-Apr-17 03:00N 37°48' W 122°17'0 0.0
2018-Apr-17 02:30N 37°48' W 122°17'0 0.0
2018-Apr-17 02:00N 37°48' W 122°17'0 0.0
2018-Apr-17 01:30N 37°48' W 122°17'0 0.0
2018-Apr-17 01:00N 37°48' W 122°17'0 0.0
2018-Apr-17 00:30N 37°48' W 122°17'0 0.0
2018-Apr-17 00:00N 37°48' W 122°17'0 0.0
2018-Apr-16 23:30N 37°48' W 122°17'0 0.0
2018-Apr-16 23:00N 37°48' W 122°17'0 0.0
2018-Apr-16 22:30N 37°48' W 122°17'0 0.0
2018-Apr-16 22:00N 37°48' W 122°17'0 0.0
2018-Apr-16 21:30N 37°48' W 122°17'0 0.0
2018-Apr-16 21:00N 37°48' W 122°17'3 5.4
2018-Apr-16 20:30N 37°48' W 122°20'0 0.9
2018-Apr-16 20:00N 37°49' W 122°20'1 1.1
2018-Apr-16 19:30N 37°49' W 122°20'2 4.7
2018-Apr-16 19:00N 37°48' W 122°23'3 6.5
2018-Apr-16 18:30N 37°48' W 122°18'1 2.2
2018-Apr-16 18:00N 37°48' W 122°17'0 0.0
2018-Apr-16 17:30N 37°48' W 122°17'0 0.0
2018-Apr-16 17:00N 37°48' W 122°17'0 0.0
2018-Apr-16 16:30N 37°48' W 122°17'0 0.0
2018-Apr-16 16:00N 37°48' W 122°17'0 0.0
2018-Apr-16 15:30N 37°48' W 122°17'0 0.0
2018-Apr-16 15:00N 37°48' W 122°17'0 0.0
2018-Apr-16 14:30N 37°48' W 122°17'0 0.0
2018-Apr-16 14:00N 37°48' W 122°17'0 0.0
2018-Apr-16 13:30N 37°48' W 122°17'0 0.0
2018-Apr-16 13:00N 37°48' W 122°17'0 0.0
2018-Apr-16 12:30N 37°48' W 122°17'0 0.0
2018-Apr-16 12:00N 37°48' W 122°17'0 0.0
2018-Apr-16 11:30N 37°48' W 122°17'0 0.0
2018-Apr-16 11:00N 37°48' W 122°17'0 0.0
2018-Apr-16 10:30N 37°48' W 122°17'0 0.0
2018-Apr-16 10:00N 37°48' W 122°17'0 0.0
2018-Apr-16 09:30N 37°48' W 122°17'0 0.0
2018-Apr-16 09:00N 37°48' W 122°17'0 0.0
2018-Apr-16 08:30N 37°48' W 122°17'0 0.0
2018-Apr-16 08:00N 37°48' W 122°17'0 0.0
2018-Apr-16 07:30N 37°48' W 122°17'0 0.0
2018-Apr-16 07:00N 37°48' W 122°17'0 0.0
2018-Apr-16 06:30N 37°48' W 122°17'0 0.0
2018-Apr-16 06:00N 37°48' W 122°17'0 0.0
2018-Apr-16 05:30N 37°48' W 122°17'0 0.0
2018-Apr-16 05:00N 37°48' W 122°17'0 0.0
2018-Apr-16 04:30N 37°48' W 122°17'0 0.0
2018-Apr-16 04:00N 37°48' W 122°17'0 0.0
2018-Apr-16 03:30N 37°48' W 122°17'0 0.0
2018-Apr-16 03:00N 37°48' W 122°17'0 0.0
2018-Apr-16 02:30N 37°48' W 122°17'0 0.0
2018-Apr-16 02:00N 37°48' W 122°17'0 0.0
2018-Apr-16 01:30N 37°48' W 122°17'0 0.0
2018-Apr-16 01:00N 37°48' W 122°17'0 0.0
2018-Apr-16 00:30N 37°48' W 122°17'0 0.0
2018-Apr-16 00:00N 37°48' W 122°17'0 0.0
2018-Apr-15 23:30N 37°48' W 122°17'0 0.0
2018-Apr-15 23:00N 37°48' W 122°17'0 0.0
2018-Apr-15 22:30N 37°48' W 122°17'  
Track history (hours):
 
Tides and Currents Weather Stations Pressure Air Temp Water Temp Dewpoint Dewpoint Depression Visibility Wind Speed Wind Dir Waves Ship Positions

Michelle Sloan

Owner: Harley Marine Services, Inc., Seattle, WA. More information available from US FCC via Universal Licensing System and Coast Guard Vessel Documentation Center.

Last reported at 2018-Apr-25 22:11 UTC. Time now 2018-Apr-25 23:31 UTC.
Position N 47°17' W 122°25'.

Length 24 m; draft 4.9 m.

Type: Towing. MMSI: 367661930.

Date/timePositionNaut miles runAvg speedWind from/ knotsBaromVisibWave heightAir tempDewpointWater temp
2018-Apr-25 22:11N 47°17' W 122°25'1 7.6
2018-Apr-25 22:01N 47°16' W 122°24'1 1.0
2018-Apr-25 21:30N 47°16' W 122°23'2 3.0
2018-Apr-25 21:00N 47°17' W 122°25'2 4.1
2018-Apr-25 20:31N 47°18' W 122°27'2 0.2
2018-Apr-25 14:22N 47°18' W 122°25'2 5.3
2018-Apr-25 13:58N 47°16' W 122°23'1 1.0
2018-Apr-25 13:24N 47°16' W 122°24'1 3.7
2018-Apr-25 13:01N 47°17' W 122°26'1 1.6
2018-Apr-25 12:30N 47°18' W 122°27'1 0.1
2018-Apr-25 02:37N 47°18' W 122°25'0 0.8
2018-Apr-25 02:29N 47°18' W 122°25'0 0.7
2018-Apr-25 01:59N 47°17' W 122°26'510.6
2018-Apr-25 01:30N 47°20' W 122°32'5 9.9
2018-Apr-25 01:00N 47°25' W 122°32'510.4
2018-Apr-25 00:31N 47°30' W 122°30'510.7
2018-Apr-25 00:00N 47°35' W 122°26'3 6.7
2018-Apr-24 23:30N 47°35' W 122°21'0 0.8
2018-Apr-24 23:00N 47°35' W 122°21'1 1.3
2018-Apr-24 22:30N 47°34' W 122°21'0 0.1
2018-Apr-24 22:00N 47°34' W 122°21'0 0.0
2018-Apr-24 21:30N 47°34' W 122°21'0 0.0
2018-Apr-24 21:01N 47°34' W 122°21'1 2.1
2018-Apr-24 20:30N 47°35' W 122°21'1 1.6
2018-Apr-24 20:00N 47°35' W 122°21'0 0.4
2018-Apr-24 19:29N 47°34' W 122°21'0 0.0
2018-Apr-24 19:00N 47°34' W 122°21'0 0.0
2018-Apr-24 18:30N 47°34' W 122°21'0 0.0
2018-Apr-24 18:00N 47°34' W 122°21'0 0.2
2018-Apr-24 17:30N 47°34' W 122°21'0 0.2
2018-Apr-24 17:00N 47°34' W 122°21'1 2.2
2018-Apr-24 16:30N 47°36' W 122°21'3 6.3
2018-Apr-24 16:00N 47°37' W 122°24'3 5.2
2018-Apr-24 15:31N 47°40' W 122°24'1 1.0
2018-Apr-24 15:00N 47°40' W 122°24'0 0.3
2018-Apr-24 14:28N 47°40' W 122°23'0 0.0
2018-Apr-24 13:58N 47°40' W 122°23'0 0.0
2018-Apr-24 13:28N 47°40' W 122°23'0 0.0
2018-Apr-24 12:58N 47°40' W 122°23'0 0.0
2018-Apr-24 12:28N 47°40' W 122°23'0 0.0
2018-Apr-24 11:58N 47°40' W 122°23'0 0.0
2018-Apr-24 11:28N 47°40' W 122°23'0 0.0
2018-Apr-24 10:58N 47°40' W 122°23'0 0.0
2018-Apr-24 10:28N 47°40' W 122°23'0 0.0
2018-Apr-24 09:58N 47°40' W 122°23'0 0.0
2018-Apr-24 09:28N 47°40' W 122°23'0 0.0
2018-Apr-24 08:58N 47°40' W 122°23'0 0.0
2018-Apr-24 08:28N 47°40' W 122°23'0 0.0
2018-Apr-24 07:58N 47°40' W 122°23'0 0.0
2018-Apr-24 07:28N 47°40' W 122°23'0 0.0
2018-Apr-24 06:58N 47°40' W 122°23'0 0.0
2018-Apr-24 06:28N 47°40' W 122°23'0 0.0
2018-Apr-24 05:58N 47°40' W 122°23'0 0.0
2018-Apr-24 05:28N 47°40' W 122°23'0 0.0
2018-Apr-24 04:58N 47°40' W 122°23'0 0.0
2018-Apr-24 04:28N 47°40' W 122°23'0 0.0
2018-Apr-24 03:58N 47°40' W 122°23'0 0.0
2018-Apr-24 03:28N 47°40' W 122°23'0 0.0
2018-Apr-24 03:00N 47°40' W 122°23'0 0.0
2018-Apr-24 02:30N 47°40' W 122°23'0 0.0
2018-Apr-24 02:00N 47°40' W 122°23'0 0.0
2018-Apr-24 01:30N 47°40' W 122°23'0 0.1
2018-Apr-24 01:00N 47°40' W 122°23'0 0.1
2018-Apr-24 00:30N 47°40' W 122°23'0 0.0
2018-Apr-24 00:00N 47°40' W 122°23'0 0.0
2018-Apr-23 23:30N 47°40' W 122°23'0 0.2
2018-Apr-23 23:00N 47°40' W 122°23'0 0.2
2018-Apr-23 22:30N 47°40' W 122°23'1 1.6
2018-Apr-23 22:00N 47°40' W 122°22'2 3.1
2018-Apr-23 21:30N 47°39' W 122°20'0 0.2
2018-Apr-23 21:00N 47°39' W 122°21'3 5.1
2018-Apr-23 20:30N 47°40' W 122°24'0 0.6
2018-Apr-23 20:00N 47°40' W 122°24'2 4.1
2018-Apr-23 19:30N 47°38' W 122°25'5 9.6
2018-Apr-23 19:00N 47°35' W 122°21'3 5.4
2018-Apr-23 18:30N 47°36' W 122°24'5 9.7
2018-Apr-23 18:00N 47°32' W 122°28'5 9.6
2018-Apr-23 17:30N 47°27' W 122°31'5 9.9
2018-Apr-23 17:00N 47°22' W 122°32'5 9.2
2018-Apr-23 16:30N 47°18' W 122°28'2 1.9
2018-Apr-23 15:15N 47°18' W 122°25'0 0.0
2018-Apr-22 22:10N 47°17' W 122°25'1 7.4
2018-Apr-22 22:00N 47°16' W 122°24'1 1.6
2018-Apr-22 21:30N 47°16' W 122°23'2 3.0
2018-Apr-22 21:00N 47°17' W 122°25'2 3.5
2018-Apr-22 20:30N 47°18' W 122°27'1 1.6
2018-Apr-22 20:00N 47°17' W 122°26'1 2.2
2018-Apr-22 19:30N 47°17' W 122°25'1 0.7
2018-Apr-22 18:15N 47°17' W 122°23'2 0.5
2018-Apr-22 15:24N 47°18' W 122°25'2 6.0
2018-Apr-22 15:00N 47°19' W 122°28'611.1
2018-Apr-22 14:30N 47°23' W 122°22'510.4
2018-Apr-22 14:00N 47°28' W 122°25'510.4
2018-Apr-22 13:30N 47°33' W 122°27'5 9.3
2018-Apr-22 13:00N 47°36' W 122°22'2 3.4
2018-Apr-22 12:27N 47°34' W 122°21'0 0.0
2018-Apr-22 12:00N 47°34' W 122°21'0 0.0
2018-Apr-22 11:21N 47°34' W 122°21'0 0.0
2018-Apr-22 10:57N 47°34' W 122°21'0 0.0
2018-Apr-22 10:21N 47°34' W 122°21'0 0.0
2018-Apr-22 10:00N 47°34' W 122°21'0 0.0
2018-Apr-22 09:27N 47°34' W 122°21'0 0.0
2018-Apr-22 08:15N 47°34' W 122°21'0 0.0
2018-Apr-22 07:57N 47°34' W 122°21'0 0.0
2018-Apr-22 07:09N 47°34' W 122°21'0 0.0
2018-Apr-22 06:51N 47°34' W 122°21'0 0.0
2018-Apr-22 06:21N 47°34' W 122°21'0 0.0
2018-Apr-22 05:57N 47°34' W 122°21'0 0.0
2018-Apr-22 05:21N 47°34' W 122°21'0 0.0
2018-Apr-22 05:00N 47°34' W 122°21'0 0.0
2018-Apr-22 04:30N 47°34' W 122°21'0 0.0
2018-Apr-22 04:00N 47°34' W 122°21'0 0.0
2018-Apr-22 03:30N 47°34' W 122°21'0 0.0
2018-Apr-22 03:00N 47°34' W 122°21'0 0.0
2018-Apr-22 02:30N 47°34' W 122°21'0 0.0
2018-Apr-22 01:57N 47°34' W 122°21'0 0.0
2018-Apr-22 01:30N 47°34' W 122°21'0 0.0
2018-Apr-22 01:00N 47°34' W 122°21'0 0.0
2018-Apr-22 00:30N 47°34' W 122°21'0 0.0
2018-Apr-21 23:57N 47°34' W 122°21'0 0.0
2018-Apr-21 23:30N 47°34' W 122°21'0 0.0
2018-Apr-21 23:00N 47°34' W 122°21'0 0.0
2018-Apr-21 22:30N 47°34' W 122°21'0 0.0
2018-Apr-21 22:00N 47°34' W 122°21'0 0.0
2018-Apr-21 21:30N 47°34' W 122°21'0 0.0
2018-Apr-21 20:57N 47°34' W 122°21'0 0.0
2018-Apr-21 20:30N 47°34' W 122°21'0 0.0
2018-Apr-21 20:00N 47°34' W 122°21'0 0.0
2018-Apr-21 19:30N 47°34' W 122°21'0 0.0
2018-Apr-21 18:57N 47°34' W 122°21'0 0.0
2018-Apr-21 18:27N 47°34' W 122°21'0 0.0
2018-Apr-21 17:57N 47°34' W 122°21'0 0.0
2018-Apr-21 17:30N 47°34' W 122°21'0 0.0
2018-Apr-21 17:00N 47°34' W 122°21'0 0.0
2018-Apr-21 16:27N 47°34' W 122°21'0 0.0
2018-Apr-21 15:54N 47°34' W 122°21'0 0.0
2018-Apr-21 15:30N 47°34' W 122°21'0 0.0
2018-Apr-21 15:00N 47°34' W 122°21'0 0.0
2018-Apr-21 14:30N 47°34' W 122°21'0 0.0
2018-Apr-21 13:57N 47°34' W 122°21'0 0.0
2018-Apr-21 13:30N 47°34' W 122°21'0 0.0
2018-Apr-21 13:00N 47°34' W 122°21'0 0.0
2018-Apr-21 12:30N 47°34' W 122°21'0 0.0
2018-Apr-21 12:00N 47°34' W 122°21'1 2.1
2018-Apr-21 11:30N 47°35' W 122°21'0 0.8
2018-Apr-21 11:00N 47°35' W 122°21'0 0.1
2018-Apr-21 10:29N 47°35' W 122°21'1 1.3
2018-Apr-21 10:00N 47°34' W 122°21'0 0.0
2018-Apr-21 09:30N 47°34' W 122°21'0 0.0
2018-Apr-21 09:00N 47°34' W 122°21'0 0.0
2018-Apr-21 08:30N 47°34' W 122°21'0 0.0
2018-Apr-21 08:00N 47°34' W 122°21'0 0.0
2018-Apr-21 07:30N 47°34' W 122°21'0 0.0
2018-Apr-21 07:00N 47°34' W 122°21'0 0.0
2018-Apr-21 06:30N 47°34' W 122°21'0 0.0
2018-Apr-21 06:00N 47°34' W 122°21'0 0.0
2018-Apr-21 05:30N 47°34' W 122°21'1 2.2
2018-Apr-21 05:01N 47°35' W 122°21'510.0
2018-Apr-21 04:30N 47°39' W 122°27'5 9.6
2018-Apr-21 04:00N 47°43' W 122°28'510.6
2018-Apr-21 03:30N 47°49' W 122°28'611.5
2018-Apr-21 03:00N 47°54' W 122°30'7210.3
2018-Apr-20 20:00N 48°18' W 124°12'4 8.5
2018-Apr-20 19:30N 48°19' W 124°17'4 8.1
2018-Apr-20 19:00N 48°21' W 124°23'4 8.4
2018-Apr-20 18:30N 48°23' W 124°28'4 8.5
2018-Apr-20 18:00N 48°25' W 124°34'4 8.1
2018-Apr-20 17:30N 48°26' W 124°40'4 8.0
2018-Apr-20 17:00N 48°27' W 124°46'73 9.9
2018-Apr-20 09:40N 47°14' W 124°36'510.4
2018-Apr-20 09:10N 47°09' W 124°35'210.1
2018-Apr-20 08:59N 47°07' W 124°34'710.2
2018-Apr-20 08:16N 47°00' W 124°32'310.5
2018-Apr-20 08:00N 46°57' W 124°32'610.7
2018-Apr-20 07:28N 46°52' W 124°30'510.7
2018-Apr-20 07:00N 46°47' W 124°28'510.5
2018-Apr-20 06:30N 46°42' W 124°26'510.4
2018-Apr-20 06:00N 46°37' W 124°24'510.6
2018-Apr-20 05:30N 46°32' W 124°23'510.8
2018-Apr-20 05:00N 46°27' W 124°21'510.3
2018-Apr-20 04:30N 46°22' W 124°19'5 9.9
2018-Apr-20 04:00N 46°17' W 124°17'510.1
2018-Apr-20 03:30N 46°12' W 124°14'5 9.9
2018-Apr-20 03:00N 46°08' W 124°10'5 9.7
2018-Apr-20 02:30N 46°03' W 124°09'510.1
2018-Apr-20 02:00N 45°58' W 124°09'510.0
2018-Apr-20 01:31N 45°53' W 124°08'5 9.9
2018-Apr-20 01:00N 45°48' W 124°06'5 9.8
2018-Apr-20 00:30N 45°44' W 124°05'5 9.9
2018-Apr-20 00:00N 45°39' W 124°05'5 9.6
2018-Apr-19 23:30N 45°34' W 124°04'510.0
2018-Apr-19 23:00N 45°29' W 124°04'610.1
2018-Apr-19 22:23N 45°23' W 124°04'6 9.9
2018-Apr-19 21:44N 45°16' W 124°05'5 9.9
2018-Apr-19 21:16N 45°12' W 124°05'3 9.8
2018-Apr-19 20:58N 45°09' W 124°05'386 8.7
2018-Apr-18 00:26N 38°44' W 123°40'4 9.0
2018-Apr-18 00:00N 38°40' W 123°37'4 8.7
2018-Apr-17 23:30N 38°37' W 123°34'5 8.6
2018-Apr-17 22:54N 38°32' W 123°31'4 8.5
2018-Apr-17 22:28N 38°29' W 123°28'4 8.4
2018-Apr-17 22:00N 38°26' W 123°26'4 8.7
2018-Apr-17 21:30N 38°22' W 123°23'4 8.6
2018-Apr-17 21:00N 38°19' W 123°20'4 8.5
2018-Apr-17 20:30N 38°15' W 123°17'4 8.7
2018-Apr-17 20:00N 38°11' W 123°14'5 9.0
2018-Apr-17 19:30N 38°07' W 123°11'5 9.1
2018-Apr-17 19:00N 38°04' W 123°08'5 9.1
2018-Apr-17 18:30N 37°60' W 123°04'5 9.2
2018-Apr-17 18:00N 37°57' W 123°00'5 9.3
2018-Apr-17 17:30N 37°54' W 122°56'5 9.5
2018-Apr-17 17:00N 37°51' W 122°51'5 9.3
2018-Apr-17 16:30N 37°49' W 122°46'510.1
2018-Apr-17 16:00N 37°46' W 122°40'510.0
2018-Apr-17 15:30N 37°48' W 122°34'510.9
2018-Apr-17 15:00N 37°49' W 122°27'510.0
2018-Apr-17 14:30N 37°48' W 122°21'1 1.0
2018-Apr-17 14:00N 37°48' W 122°21'2 3.5
2018-Apr-17 13:31N 37°48' W 122°19'1 1.7
2018-Apr-17 13:00N 37°48' W 122°17'1 2.1
2018-Apr-17 12:30N 37°48' W 122°19'0 0.6
2018-Apr-17 12:00N 37°48' W 122°18'1 2.1
2018-Apr-17 11:30N 37°48' W 122°17'0 0.0
2018-Apr-17 11:00N 37°48' W 122°17'0 0.0
2018-Apr-17 10:30N 37°48' W 122°17'0 0.0
2018-Apr-17 10:00N 37°48' W 122°17'0 0.0
2018-Apr-17 09:30N 37°48' W 122°17'0 0.0
2018-Apr-17 09:00N 37°48' W 122°17'0 0.0
2018-Apr-17 08:30N 37°48' W 122°17'0 0.0
2018-Apr-17 08:00N 37°48' W 122°17'0 0.0
2018-Apr-17 07:30N 37°48' W 122°17'0 0.0
2018-Apr-17 07:00N 37°48' W 122°17'0 0.0
2018-Apr-17 06:30N 37°48' W 122°17'0 0.0
2018-Apr-17 06:00N 37°48' W 122°17'0 0.0
2018-Apr-17 05:30N 37°48' W 122°17'0 0.0
2018-Apr-17 04:59N 37°48' W 122°17'0 0.0
2018-Apr-17 04:30N 37°48' W 122°17'0 0.0
2018-Apr-17 04:00N 37°48' W 122°17'0 0.0
2018-Apr-17 03:30N 37°48' W 122°17'0 0.0
2018-Apr-17 03:00N 37°48' W 122°17'0 0.0
2018-Apr-17 02:30N 37°48' W 122°17'0 0.0
2018-Apr-17 02:00N 37°48' W 122°17'0 0.0
2018-Apr-17 01:30N 37°48' W 122°17'0 0.0
2018-Apr-17 01:00N 37°48' W 122°17'0 0.0
2018-Apr-17 00:30N 37°48' W 122°17'0 0.0
2018-Apr-17 00:00N 37°48' W 122°17'0 0.0
2018-Apr-16 23:30N 37°48' W 122°17'0 0.0
2018-Apr-16 23:00N 37°48' W 122°17'0 0.0
2018-Apr-16 22:30N 37°48' W 122°17'0 0.0
2018-Apr-16 22:00N 37°48' W 122°17'0 0.0
2018-Apr-16 21:30N 37°48' W 122°17'0 0.0
2018-Apr-16 21:00N 37°48' W 122°17'3 5.4
2018-Apr-16 20:30N 37°48' W 122°20'0 0.9
2018-Apr-16 20:00N 37°49' W 122°20'1 1.1
2018-Apr-16 19:30N 37°49' W 122°20'2 4.7
2018-Apr-16 19:00N 37°48' W 122°23'3 6.5
2018-Apr-16 18:30N 37°48' W 122°18'1 2.2
2018-Apr-16 18:00N 37°48' W 122°17'0 0.0
2018-Apr-16 17:30N 37°48' W 122°17'0 0.0
2018-Apr-16 17:00N 37°48' W 122°17'0 0.0
2018-Apr-16 16:30N 37°48' W 122°17'0 0.0
2018-Apr-16 16:00N 37°48' W 122°17'0 0.0
2018-Apr-16 15:30N 37°48' W 122°17'0 0.0
2018-Apr-16 15:00N 37°48' W 122°17'0 0.0
2018-Apr-16 14:30N 37°48' W 122°17'0 0.0
2018-Apr-16 14:00N 37°48' W 122°17'0 0.0
2018-Apr-16 13:30N 37°48' W 122°17'0 0.0
2018-Apr-16 13:00N 37°48' W 122°17'0 0.0
2018-Apr-16 12:30N 37°48' W 122°17'0 0.0
2018-Apr-16 12:00N 37°48' W 122°17'0 0.0
2018-Apr-16 11:30N 37°48' W 122°17'0 0.0
2018-Apr-16 11:00N 37°48' W 122°17'0 0.0
2018-Apr-16 10:30N 37°48' W 122°17'0 0.0
2018-Apr-16 10:00N 37°48' W 122°17'0 0.0
2018-Apr-16 09:30N 37°48' W 122°17'0 0.0
2018-Apr-16 09:00N 37°48' W 122°17'0 0.0
2018-Apr-16 08:30N 37°48' W 122°17'0 0.0
2018-Apr-16 08:00N 37°48' W 122°17'0 0.0
2018-Apr-16 07:30N 37°48' W 122°17'0 0.0
2018-Apr-16 07:00N 37°48' W 122°17'0 0.0
2018-Apr-16 06:30N 37°48' W 122°17'0 0.0
2018-Apr-16 06:00N 37°48' W 122°17'0 0.0
2018-Apr-16 05:30N 37°48' W 122°17'0 0.0
2018-Apr-16 05:00N 37°48' W 122°17'0 0.0
2018-Apr-16 04:30N 37°48' W 122°17'0 0.0
2018-Apr-16 04:00N 37°48' W 122°17'0 0.0
2018-Apr-16 03:30N 37°48' W 122°17'0 0.0
2018-Apr-16 03:00N 37°48' W 122°17'0 0.0
2018-Apr-16 02:30N 37°48' W 122°17'0 0.0
2018-Apr-16 02:00N 37°48' W 122°17'0 0.0
2018-Apr-16 01:30N 37°48' W 122°17'0 0.0
2018-Apr-16 01:00N 37°48' W 122°17'0 0.0
2018-Apr-16 00:30N 37°48' W 122°17'0 0.0
2018-Apr-16 00:00N 37°48' W 122°17'0 0.0
2018-Apr-15 23:30N 37°48' W 122°17'0 0.0
2018-Apr-15 23:00N 37°48' W 122°17'0 0.0
2018-Apr-15 22:30N 37°48' W 122°17'  

Dump ship's entire track history